Time;durP1;ratioP1;P1;durP2;ratioP2;P2;SDS_P1;SDS_P2;PMS_P1;PMS_P2;Temp;Humidity;BMP_temperature;BMP_pressure;BME280_temperature;BME280_humidity;BME280_pressure;Samples;Min_cycle;Max_cycle;Signal;HPM_P1;HPM_P2
2023/09/27 00:01:56;;;;;;;5.60;5.13;;;19.50;60.20;;;;;;4994884;28;20199;-52
2023/09/27 00:04:21;;;;;;;6.40;5.90;;;19.60;60.00;;;;;;4998588;28;20229;-52
2023/09/27 00:06:47;;;;;;;5.70;5.30;;;19.70;59.60;;;;;;4998602;28;20205;-50
2023/09/27 00:09:13;;;;;;;5.60;5.10;;;19.60;59.70;;;;;;4995190;28;20326;-52
2023/09/27 00:11:40;;;;;;;6.73;6.13;;;19.50;60.00;;;;;;4993684;28;21016;-52
2023/09/27 00:14:05;;;;;;;5.77;5.17;;;19.50;59.90;;;;;;4992481;28;20233;-51
2023/09/27 00:16:31;;;;;;;6.23;5.63;;;19.60;59.90;;;;;;4993812;28;20469;-45
2023/09/27 00:18:56;;;;;;;8.83;5.20;;;19.60;59.90;;;;;;5003688;28;20194;-50
2023/09/27 00:21:22;;;;;;;6.40;5.80;;;19.60;59.80;;;;;;4995680;28;20202;-50
2023/09/27 00:23:48;;;;;;;6.20;5.60;;;19.70;59.70;;;;;;4993376;28;20281;-46
2023/09/27 00:26:13;;;;;;;6.23;5.70;;;19.70;59.60;;;;;;4995601;28;20201;-46
2023/09/27 00:28:39;;;;;;;5.30;4.77;;;19.70;59.50;;;;;;4995373;28;20194;-48
2023/09/27 00:31:04;;;;;;;5.97;5.43;;;19.70;59.40;;;;;;4991367;28;20198;-46
2023/09/27 00:33:30;;;;;;;6.00;5.40;;;19.70;59.30;;;;;;4986793;28;20209;-49
2023/09/27 00:35:56;;;;;;;6.07;5.57;;;19.90;59.30;;;;;;4998430;28;20205;-49
2023/09/27 00:38:22;;;;;;;9.03;5.77;;;19.90;59.10;;;;;;4987823;28;20256;-49
2023/09/27 00:40:48;;;;;;;5.90;5.30;;;20.00;59.10;;;;;;4988747;28;21653;-46
2023/09/27 00:43:26;;;;;;;5.60;4.87;;;20.00;59.20;;;;;;4998522;28;20211;-49
2023/09/27 00:46:06;;;;;;;5.83;5.33;;;20.10;59.10;;;;;;4988942;28;20217;-46
2023/09/27 00:48:33;;;;;;;7.40;5.93;;;20.20;58.80;;;;;;4990079;28;20452;-46
2023/09/27 00:51:00;;;;;;;6.03;5.43;;;20.20;58.90;;;;;;4995587;28;20438;-46
2023/09/27 00:53:28;;;;;;;5.43;4.80;;;20.20;58.40;;;;;;5005404;28;20813;-46
2023/09/27 00:55:55;;;;;;;7.10;5.20;;;20.20;58.00;;;;;;4997703;28;20812;-46
2023/09/27 00:58:23;;;;;;;6.13;5.53;;;20.20;57.90;;;;;;4992275;28;20516;-46
2023/09/27 01:00:50;;;;;;;5.70;5.20;;;20.00;58.30;;;;;;4991699;28;20452;-48
2023/09/27 01:03:17;;;;;;;5.70;5.03;;;19.80;59.10;;;;;;4988342;28;20445;-50
2023/09/27 01:05:43;;;;;;;5.83;5.33;;;19.80;59.10;;;;;;4988399;28;20445;-50
2023/09/27 01:08:09;;;;;;;5.60;5.10;;;19.90;59.00;;;;;;4985136;28;20464;-52
2023/09/27 01:10:35;;;;;;;5.97;5.57;;;19.90;58.40;;;;;;4990063;28;20445;-53
2023/09/27 01:13:02;;;;;;;6.07;5.47;;;19.90;58.10;;;;;;4992713;28;20284;-49
2023/09/27 01:15:28;;;;;;;5.80;5.40;;;20.00;58.20;;;;;;4993534;28;20442;-51
2023/09/27 01:17:55;;;;;;;6.63;5.93;;;20.00;58.50;;;;;;4990488;28;20495;-53
2023/09/27 01:20:21;;;;;;;5.53;5.07;;;19.90;58.30;;;;;;4989346;28;20195;-53
2023/09/27 01:23:00;;;;;;;6.30;5.80;;;19.90;57.60;;;;;;4987270;28;20441;-53
2023/09/27 01:25:28;;;;;;;6.10;5.60;;;19.90;58.10;;;;;;4986847;28;20556;-48
2023/09/27 01:27:54;;;;;;;8.20;6.10;;;19.90;58.40;;;;;;4988553;28;20457;-53
2023/09/27 01:30:19;;;;;;;6.53;5.93;;;19.80;59.00;;;;;;4993784;28;20456;-52
2023/09/27 01:32:45;;;;;;;8.07;5.83;;;19.90;58.90;;;;;;4995530;28;20244;-48
2023/09/27 01:35:10;;;;;;;5.90;5.40;;;19.90;58.60;;;;;;4994697;28;20202;-52
2023/09/27 01:37:36;;;;;;;6.27;5.67;;;19.90;58.50;;;;;;4997624;28;20254;-53
2023/09/27 01:40:06;;;;;;;6.53;6.03;;;19.90;58.70;;;;;;4997933;28;20198;-51
2023/09/27 01:42:32;;;;;;;6.00;5.50;;;20.00;58.50;;;;;;4990759;28;20202;-47
2023/09/27 01:44:57;;;;;;;6.50;5.80;;;19.90;58.70;;;;;;5001508;28;20441;-46
2023/09/27 01:47:23;;;;;;;5.80;4.90;;;20.00;58.60;;;;;;4992251;28;20205;-51
2023/09/27 01:49:49;;;;;;;6.83;6.03;;;19.90;58.60;;;;;;4995553;28;20226;-51
2023/09/27 01:52:14;;;;;;;7.50;6.13;;;20.00;58.30;;;;;;4995334;28;20651;-49
2023/09/27 01:54:40;;;;;;;7.37;5.60;;;19.90;58.20;;;;;;4999587;28;20676;-46
2023/09/27 01:57:05;;;;;;;10.03;6.23;;;19.90;58.50;;;;;;4991174;28;20242;-47
2023/09/27 01:59:31;;;;;;;6.80;6.10;;;19.90;58.40;;;;;;4998513;28;20225;-50
2023/09/27 02:01:56;;;;;;;5.87;5.30;;;19.90;58.20;;;;;;4998894;28;20645;-50
2023/09/27 02:04:23;;;;;;;6.13;5.60;;;19.70;58.90;;;;;;4991983;28;20198;-49
2023/09/27 02:06:48;;;;;;;6.13;5.63;;;19.40;58.50;;;;;;4989882;28;20198;-47
2023/09/27 02:09:14;;;;;;;5.53;4.63;;;19.40;59.20;;;;;;4993589;28;20452;-47
2023/09/27 02:11:39;;;;;;;5.13;4.63;;;19.30;58.70;;;;;;4994315;28;20202;-48
2023/09/27 02:14:05;;;;;;;5.10;4.70;;;18.90;59.80;;;;;;4994687;28;20199;-48
2023/09/27 02:16:33;;;;;;;5.87;5.37;;;19.00;60.70;;;;;;5000656;28;20194;-45
2023/09/27 02:18:59;;;;;;;5.40;4.73;;;19.20;59.40;;;;;;4998436;28;20252;-47
2023/09/27 02:21:25;;;;;;;6.40;5.80;;;19.30;59.20;;;;;;5015745;28;20461;-49
2023/09/27 02:23:50;;;;;;;8.00;5.73;;;19.50;58.50;;;;;;4993182;28;20243;-50
2023/09/27 02:26:16;;;;;;;6.70;5.17;;;19.60;58.10;;;;;;4994183;28;20661;-46
2023/09/27 02:28:43;;;;;;;6.57;5.97;;;19.60;57.60;;;;;;5005266;28;20703;-46
2023/09/27 02:31:12;;;;;;;6.33;5.80;;;19.70;57.30;;;;;;4997984;28;20573;-46
2023/09/27 02:33:38;;;;;;;7.43;4.83;;;19.60;57.10;;;;;;5001628;28;20519;-48
2023/09/27 02:36:04;;;;;;;7.17;4.80;;;19.70;57.50;;;;;;5000329;28;20932;-46
2023/09/27 02:38:30;;;;;;;5.07;4.60;;;19.70;57.90;;;;;;5002582;28;20491;-47
2023/09/27 02:40:55;;;;;;;5.93;5.30;;;19.60;58.20;;;;;;5006880;28;20325;-49
2023/09/27 02:43:21;;;;;;;5.80;5.33;;;19.50;58.60;;;;;;4998431;28;20198;-48
2023/09/27 02:45:48;;;;;;;6.00;5.50;;;19.60;58.10;;;;;;4996359;28;20638;-46
2023/09/27 02:48:14;;;;;;;6.07;5.57;;;19.50;58.70;;;;;;4993550;28;20473;-47
2023/09/27 02:50:39;;;;;;;6.00;5.50;;;19.10;58.80;;;;;;5001613;28;20448;-48
2023/09/27 02:53:05;;;;;;;6.97;5.53;;;19.10;59.70;;;;;;5006489;28;20202;-46
2023/09/27 02:55:31;;;;;;;6.27;5.67;;;19.20;59.30;;;;;;4995512;28;20201;-46
2023/09/27 02:57:56;;;;;;;6.77;5.87;;;19.20;59.30;;;;;;5000648;28;20226;-47
2023/09/27 03:00:22;;;;;;;6.67;5.83;;;19.20;59.40;;;;;;4991913;28;20197;-46
2023/09/27 03:02:48;;;;;;;6.60;6.00;;;19.10;59.60;;;;;;4998075;28;20194;-53
2023/09/27 03:05:14;;;;;;;7.93;6.00;;;19.20;59.70;;;;;;4997462;28;20194;-46
2023/09/27 03:07:41;;;;;;;6.57;5.97;;;19.20;59.60;;;;;;4994536;28;20253;-46
2023/09/27 03:10:11;;;;;;;5.67;5.27;;;19.10;59.80;;;;;;4994431;28;20445;-50
2023/09/27 03:12:38;;;;;;;6.00;5.40;;;19.10;60.30;;;;;;4993674;28;20499;-47
2023/09/27 03:15:07;;;;;;;9.10;5.10;;;19.10;60.00;;;;;;5008009;28;20476;-47
2023/09/27 03:17:32;;;;;;;5.63;5.13;;;19.10;60.10;;;;;;4993753;28;20576;-49
2023/09/27 03:19:58;;;;;;;6.70;6.03;;;18.80;60.40;;;;;;4993805;28;20532;-49
2023/09/27 03:22:23;;;;;;;6.47;5.73;;;18.70;61.40;;;;;;4990221;28;20206;-49
2023/09/27 03:24:49;;;;;;;6.17;5.60;;;18.80;61.50;;;;;;4994853;28;20199;-45
2023/09/27 03:27:14;;;;;;;5.87;5.27;;;18.90;61.10;;;;;;4990584;28;20205;-45
2023/09/27 03:29:40;;;;;;;6.60;6.10;;;18.90;61.10;;;;;;4989015;28;20256;-47
2023/09/27 03:32:06;;;;;;;6.40;5.80;;;19.00;60.40;;;;;;5003479;28;20555;-47
2023/09/27 03:34:31;;;;;;;5.83;5.03;;;19.20;60.10;;;;;;4999829;28;20934;-46
2023/09/27 03:36:57;;;;;;;7.43;6.73;;;19.20;59.60;;;;;;4992930;28;20484;-47
2023/09/27 03:39:23;;;;;;;12.23;6.20;;;19.20;59.40;;;;;;4998127;28;20199;-46
2023/09/27 03:41:50;;;;;;;7.53;4.90;;;19.10;59.00;;;;;;5002986;28;20197;-45
2023/09/27 03:44:16;;;;;;;6.33;5.73;;;19.20;59.00;;;;;;4988318;28;20195;-47
2023/09/27 03:46:41;;;;;;;7.30;6.60;;;19.00;58.60;;;;;;4999859;28;20523;-46
2023/09/27 03:49:07;;;;;;;7.17;6.47;;;18.90;59.70;;;;;;4998376;28;20221;-46
2023/09/27 03:51:32;;;;;;;7.40;6.40;;;18.90;59.70;;;;;;4993832;28;20206;-50
2023/09/27 03:53:58;;;;;;;6.07;5.43;;;18.70;59.70;;;;;;4994941;28;20218;-48
2023/09/27 03:56:23;;;;;;;7.00;6.40;;;18.80;60.10;;;;;;5006664;28;20245;-45
2023/09/27 03:58:49;;;;;;;6.90;6.20;;;18.80;60.50;;;;;;4993881;28;20199;-45
2023/09/27 04:01:16;;;;;;;7.00;6.40;;;18.90;59.70;;;;;;4999750;28;20233;-46
2023/09/27 04:03:41;;;;;;;6.67;6.07;;;19.00;59.10;;;;;;4999407;28;20199;-45
2023/09/27 04:06:07;;;;;;;6.90;6.30;;;18.90;58.60;;;;;;5001065;28;20556;-45
2023/09/27 04:08:34;;;;;;;6.20;5.70;;;18.60;59.10;;;;;;4991397;28;20286;-47
2023/09/27 04:11:05;;;;;;;7.13;5.93;;;18.40;59.80;;;;;;5000702;28;20182;-46
2023/09/27 04:13:32;;;;;;;6.73;6.13;;;18.40;60.10;;;;;;4995764;28;20450;-46
2023/09/27 04:15:58;;;;;;;8.33;7.10;;;18.40;60.00;;;;;;4988503;28;21017;-45
2023/09/27 04:18:24;;;;;;;6.03;5.53;;;18.20;59.90;;;;;;4988189;28;20568;-48
2023/09/27 04:20:49;;;;;;;6.23;5.73;;;18.10;60.50;;;;;;4990456;28;20195;-45
2023/09/27 04:23:15;;;;;;;6.60;6.00;;;17.90;61.10;;;;;;4989909;28;20202;-46
2023/09/27 04:25:41;;;;;;;6.90;6.20;;;18.00;61.20;;;;;;4990668;28;20441;-46
2023/09/27 04:28:07;;;;;;;7.20;6.57;;;18.00;60.70;;;;;;4988603;28;20670;-47
2023/09/27 04:30:33;;;;;;;6.97;6.30;;;18.10;60.30;;;;;;4994140;28;20445;-45
2023/09/27 04:32:58;;;;;;;6.73;5.97;;;18.10;60.20;;;;;;4988519;28;20194;-44
2023/09/27 04:35:24;;;;;;;6.73;6.13;;;18.00;60.50;;;;;;4997749;28;20281;-47
2023/09/27 04:37:49;;;;;;;6.60;5.87;;;18.00;60.90;;;;;;4990313;28;20233;-46
2023/09/27 04:40:15;;;;;;;6.83;6.23;;;18.00;60.70;;;;;;4998936;28;20202;-44
2023/09/27 04:42:42;;;;;;;7.10;6.50;;;18.00;60.40;;;;;;4993257;28;20244;-45
2023/09/27 04:45:10;;;;;;;6.07;5.57;;;18.10;60.40;;;;;;4997917;28;20261;-45
2023/09/27 04:47:35;;;;;;;6.70;5.93;;;18.00;60.40;;;;;;4993777;28;20500;-47
2023/09/27 04:50:01;;;;;;;6.10;5.60;;;18.00;60.30;;;;;;4990463;28;20438;-45
2023/09/27 04:52:27;;;;;;;7.43;6.70;;;18.00;60.20;;;;;;4994987;28;20261;-45
2023/09/27 04:54:59;;;;;;;7.40;6.70;;;17.90;60.50;;;;;;4997850;28;20280;-44
2023/09/27 04:57:24;;;;;;;7.00;6.40;;;17.90;60.90;;;;;;4998402;28;20308;-44
2023/09/27 04:59:52;;;;;;;8.27;7.20;;;17.70;61.30;;;;;;4984586;28;20445;-47
2023/09/27 05:02:18;;;;;;;6.90;6.13;;;17.70;61.50;;;;;;4995796;28;20213;-46
2023/09/27 05:04:45;;;;;;;7.30;6.70;;;17.80;61.20;;;;;;4990644;28;20488;-47
2023/09/27 05:07:10;;;;;;;6.13;5.63;;;17.80;61.10;;;;;;4991117;28;20453;-46
2023/09/27 05:09:36;;;;;;;6.40;5.80;;;17.70;61.10;;;;;;4995727;28;20460;-47
2023/09/27 05:12:02;;;;;;;6.73;6.13;;;17.70;61.40;;;;;;4989939;28;20206;-45
2023/09/27 05:14:27;;;;;;;7.43;6.83;;;17.60;61.20;;;;;;4994812;28;20201;-46
2023/09/27 05:16:53;;;;;;;6.20;5.60;;;17.50;62.10;;;;;;4991023;28;20215;-46
2023/09/27 05:19:18;;;;;;;7.73;6.03;;;17.40;62.10;;;;;;4994987;28;20676;-46
2023/09/27 05:21:44;;;;;;;13.37;5.97;;;17.50;62.80;;;;;;4987232;28;20273;-46
2023/09/27 05:24:09;;;;;;;6.80;6.13;;;17.80;65.60;;;;;;5003743;28;20198;-50
2023/09/27 05:26:35;;;;;;;7.57;6.10;;;18.00;63.90;;;;;;5000164;28;20209;-46
2023/09/27 05:29:02;;;;;;;7.67;6.10;;;18.30;63.70;;;;;;4999911;28;20194;-46
2023/09/27 05:31:28;;;;;;;7.07;6.47;;;18.60;62.30;;;;;;4992518;28;20245;-45
2023/09/27 05:33:53;;;;;;;6.50;5.90;;;18.90;60.70;;;;;;4989305;28;20990;-48
2023/09/27 05:36:19;;;;;;;6.70;6.10;;;19.00;59.60;;;;;;4988886;28;20818;-49
2023/09/27 05:38:46;;;;;;;6.80;6.10;;;19.20;58.50;;;;;;4980753;28;20250;-48
2023/09/27 05:41:11;;;;;;;6.20;5.60;;;19.20;57.50;;;;;;4988864;28;20201;-47
2023/09/27 05:43:37;;;;;;;6.13;4.80;;;19.30;57.50;;;;;;4990885;28;20433;-51
2023/09/27 05:46:02;;;;;;;5.70;5.30;;;19.20;57.20;;;;;;4990328;28;20214;-47
2023/09/27 05:48:30;;;;;;;5.63;5.00;;;19.30;57.30;;;;;;5001282;28;20273;-49
2023/09/27 05:50:56;;;;;;;5.63;5.10;;;19.30;57.00;;;;;;4992019;28;20202;-53
2023/09/27 05:53:21;;;;;;;5.77;5.30;;;19.30;56.80;;;;;;4998816;28;20454;-46
2023/09/27 05:55:48;;;;;;;7.20;6.50;;;19.40;56.80;;;;;;4989330;28;20235;-47
2023/09/27 05:58:13;;;;;;;8.23;5.83;;;19.50;56.70;;;;;;4990796;28;20237;-52
2023/09/27 06:00:42;;;;;;;6.03;5.43;;;19.50;56.70;;;;;;4985729;28;20432;-52
2023/09/27 06:03:08;;;;;;;6.57;6.00;;;19.50;56.30;;;;;;4992077;28;20206;-51
2023/09/27 06:05:34;;;;;;;5.80;5.30;;;19.50;56.40;;;;;;4986602;28;20476;-47
2023/09/27 06:08:00;;;;;;;6.47;5.90;;;19.40;56.30;;;;;;4999353;28;20797;-46
2023/09/27 06:10:25;;;;;;;7.53;6.83;;;19.20;57.20;;;;;;4999073;28;20476;-52
2023/09/27 06:12:51;;;;;;;9.50;5.67;;;19.10;57.30;;;;;;5000608;28;20194;-49
2023/09/27 06:15:17;;;;;;;6.73;6.13;;;18.80;58.10;;;;;;4998596;28;20229;-52
2023/09/27 06:17:43;;;;;;;7.07;6.20;;;18.90;58.70;;;;;;4997092;28;20230;-46
2023/09/27 06:20:19;;;;;;;6.43;5.70;;;19.10;58.10;;;;;;5002628;28;20269;-51
2023/09/27 06:22:48;;;;;;;6.83;6.07;;;19.30;57.40;;;;;;4999026;28;20306;-47
2023/09/27 06:25:15;;;;;;;7.50;5.60;;;19.60;57.20;;;;;;4986286;28;20450;-46
2023/09/27 06:27:40;;;;;;;6.90;6.20;;;19.80;56.70;;;;;;4998995;28;20498;-52
2023/09/27 06:30:07;;;;;;;6.30;5.70;;;19.90;56.30;;;;;;4984692;28;20438;-51
2023/09/27 06:32:35;;;;;;;5.80;5.17;;;20.00;56.20;;;;;;4989020;28;20195;-46
2023/09/27 06:35:00;;;;;;;6.03;5.40;;;20.00;57.20;;;;;;4988906;28;20952;-51
2023/09/27 06:37:28;;;;;;;7.37;6.23;;;20.00;56.40;;;;;;4982198;28;20490;-51
2023/09/27 06:39:53;;;;;;;6.83;6.03;;;20.20;56.40;;;;;;4984102;28;20643;-46
2023/09/27 06:42:19;;;;;;;6.47;5.10;;;20.10;56.10;;;;;;4984883;28;20556;-50
2023/09/27 06:44:44;;;;;;;8.30;5.90;;;19.90;57.00;;;;;;4987363;28;20551;-50
2023/09/27 06:47:10;;;;;;;5.63;5.00;;;19.80;57.80;;;;;;4986835;28;20213;-46
2023/09/27 06:49:36;;;;;;;6.70;6.10;;;20.10;57.50;;;;;;4990499;28;20693;-50
2023/09/27 06:52:02;;;;;;;6.13;5.63;;;20.20;57.20;;;;;;4992284;28;20748;-49
2023/09/27 06:54:29;;;;;;;8.97;6.90;;;20.40;57.40;;;;;;4989319;28;20441;-50
2023/09/27 06:56:54;;;;;;;5.47;5.00;;;20.50;57.00;;;;;;4987678;28;20324;-51
2023/09/27 06:59:20;;;;;;;6.13;5.40;;;20.40;57.60;;;;;;4991404;28;20480;-47
2023/09/27 07:01:45;;;;;;;6.60;6.00;;;20.50;57.20;;;;;;4993807;28;20685;-48
2023/09/27 07:04:11;;;;;;;7.33;5.67;;;20.30;57.70;;;;;;4994617;28;20545;-50
2023/09/27 07:06:37;;;;;;;5.57;5.07;;;20.40;58.10;;;;;;4989285;28;20608;-47
2023/09/27 07:09:04;;;;;;;7.33;5.93;;;20.70;57.30;;;;;;4989142;28;20190;-49
2023/09/27 07:11:29;;;;;;;6.50;5.90;;;21.10;56.70;;;;;;4991159;28;20285;-50
2023/09/27 07:13:55;;;;;;;7.23;5.40;;;21.20;55.80;;;;;;4990445;28;20604;-46
2023/09/27 07:16:26;;;;;;;12.13;5.80;;;21.40;56.10;;;;;;4985440;28;20644;-49
2023/09/27 07:18:53;;;;;;;6.90;6.30;;;21.40;56.10;;;;;;4985105;28;20568;-49
2023/09/27 07:21:23;;;;;;;8.13;5.60;;;21.20;55.90;;;;;;4993257;28;20433;-50
2023/09/27 07:23:49;;;;;;;6.53;5.93;;;21.00;57.20;;;;;;4991638;28;20451;-49
2023/09/27 07:26:16;;;;;;;6.70;6.00;;;21.00;57.40;;;;;;5001269;28;20924;-50
2023/09/27 07:28:42;;;;;;;7.20;6.43;;;21.10;57.50;;;;;;4988010;28;20457;-51
2023/09/27 07:31:08;;;;;;;7.53;6.60;;;20.40;59.00;;;;;;4991563;28;20441;-50
2023/09/27 07:33:33;;;;;;;6.20;5.60;;;20.50;59.50;;;;;;4989381;28;20528;-47
2023/09/27 07:35:59;;;;;;;7.43;6.07;;;20.80;59.10;;;;;;4989639;28;20871;-48
2023/09/27 07:38:26;;;;;;;7.03;6.00;;;21.10;58.40;;;;;;4985741;28;20677;-52
2023/09/27 07:40:52;;;;;;;6.53;5.60;;;21.00;58.30;;;;;;4990067;28;20450;-50
2023/09/27 07:43:18;;;;;;;7.30;5.00;;;21.30;58.00;;;;;;4997437;28;20803;-46
2023/09/27 07:45:46;;;;;;;6.53;5.10;;;21.60;57.60;;;;;;4990424;28;20444;-51
2023/09/27 07:48:12;;;;;;;5.90;5.30;;;21.80;56.90;;;;;;4994035;28;21016;-48
2023/09/27 07:50:39;;;;;;;5.30;4.80;;;21.90;56.70;;;;;;5004123;28;20521;-52
2023/09/27 07:53:06;;;;;;;5.10;4.70;;;21.80;56.60;;;;;;4994752;28;20191;-50
2023/09/27 07:55:36;;;;;;;5.77;5.27;;;21.90;56.80;;;;;;5002933;28;22108;-51
2023/09/27 07:58:03;;;;;;;8.30;6.80;;;21.90;56.90;;;;;;4989502;28;20485;-51
2023/09/27 08:00:30;;;;;;;5.83;5.13;;;22.00;57.00;;;;;;4998701;28;20448;-51
2023/09/27 08:02:57;;;;;;;5.50;5.00;;;22.40;56.50;;;;;;5002260;28;20513;-50
2023/09/27 08:05:24;;;;;;;6.10;5.60;;;22.70;55.60;;;;;;4994985;28;20480;-50
2023/09/27 08:07:50;;;;;;;5.30;4.87;;;22.80;55.10;;;;;;4985616;28;20434;-47
2023/09/27 08:10:18;;;;;;;5.27;4.90;;;23.00;54.90;;;;;;4991236;28;20498;-51
2023/09/27 08:12:44;;;;;;;4.90;4.50;;;23.00;54.70;;;;;;4990096;28;20445;-49
2023/09/27 08:15:12;;;;;;;7.50;4.30;;;23.10;54.60;;;;;;4994646;28;20436;-47
2023/09/27 08:17:38;;;;;;;5.00;4.30;;;23.30;54.20;;;;;;4995644;28;20495;-51
2023/09/27 08:20:09;;;;;;;5.40;5.00;;;23.20;54.30;;;;;;4990319;28;20454;-50
2023/09/27 08:22:36;;;;;;;4.60;4.20;;;23.30;54.40;;;;;;4985324;28;20576;-49
2023/09/27 08:25:04;;;;;;;4.83;4.43;;;23.50;54.30;;;;;;4990763;28;20891;-47
2023/09/27 08:27:30;;;;;;;4.83;4.43;;;23.50;54.10;;;;;;4994215;28;20991;-48
2023/09/27 08:29:55;;;;;;;4.73;4.33;;;23.50;54.80;;;;;;4995131;28;20437;-47
2023/09/27 08:32:21;;;;;;;4.73;4.40;;;23.60;54.10;;;;;;4987382;28;20201;-52
2023/09/27 08:34:47;;;;;;;5.20;4.80;;;23.70;53.80;;;;;;4988080;28;20273;-52
2023/09/27 08:37:12;;;;;;;4.60;4.20;;;23.80;53.60;;;;;;4983106;28;20223;-52
2023/09/27 08:39:39;;;;;;;5.33;4.80;;;23.90;53.40;;;;;;4992268;28;20500;-54
2023/09/27 08:42:05;;;;;;;4.70;4.20;;;24.00;53.10;;;;;;4990725;28;20202;-52
2023/09/27 08:44:31;;;;;;;5.07;3.60;;;24.10;53.10;;;;;;4990557;28;20956;-49
2023/09/27 08:46:57;;;;;;;3.90;3.60;;;24.30;53.00;;;;;;4991547;28;20453;-52
2023/09/27 08:49:24;;;;;;;3.53;3.23;;;24.50;53.30;;;;;;4989797;28;20452;-52
2023/09/27 08:51:51;;;;;;;4.43;4.07;;;24.50;53.30;;;;;;4989451;28;20195;-53
2023/09/27 08:54:19;;;;;;;4.50;4.10;;;24.60;52.80;;;;;;4993429;28;20442;-53
2023/09/27 08:56:48;;;;;;;5.00;3.80;;;24.80;52.70;;;;;;4991740;28;20470;-51
2023/09/27 08:59:14;;;;;;;3.97;3.57;;;24.80;52.40;;;;;;4990505;28;20448;-53
2023/09/27 09:01:43;;;;;;;4.27;3.97;;;25.00;52.50;;;;;;4988058;28;20442;-50
2023/09/27 09:04:09;;;;;;;4.50;4.10;;;25.20;51.30;;;;;;4991837;28;20528;-51
2023/09/27 09:06:35;;;;;;;5.20;4.70;;;25.40;51.10;;;;;;4991949;28;20924;-48
2023/09/27 09:09:10;;;;;;;3.67;3.37;;;25.60;50.90;;;;;;4994665;28;20438;-52
2023/09/27 09:11:38;;;;;;;4.10;3.70;;;25.70;50.30;;;;;;4990850;28;20257;-48
2023/09/27 09:14:04;;;;;;;4.27;3.97;;;25.90;50.70;;;;;;4995963;28;20524;-51
2023/09/27 09:16:39;;;;;;;4.40;3.60;;;26.00;49.90;;;;;;4991875;28;20980;-47
2023/09/27 09:19:24;;;;;;;3.87;3.57;;;26.20;49.90;;;;;;4996859;28;20452;-49
2023/09/27 09:22:09;;;;;;;3.93;3.57;;;26.40;49.50;;;;;;4995646;28;20540;-52
2023/09/27 09:24:43;;;;;;;3.83;3.57;;;26.50;49.20;;;;;;4996093;28;20449;-50
2023/09/27 09:27:13;;;;;;;3.50;3.30;;;26.50;49.20;;;;;;4994670;28;20540;-48
2023/09/27 09:29:47;;;;;;;3.73;3.43;;;26.60;49.20;;;;;;4999204;28;20446;-50
2023/09/27 09:32:18;;;;;;;6.33;3.73;;;26.90;48.70;;;;;;4992113;28;20481;-50
2023/09/27 09:34:45;;;;;;;5.30;4.27;;;27.00;48.10;;;;;;4985725;28;20442;-48
2023/09/27 09:37:21;;;;;;;6.90;3.77;;;27.10;48.70;;;;;;4990103;28;20489;-52
2023/09/27 09:39:49;;;;;;;3.80;3.20;;;27.20;47.30;;;;;;4986610;28;20448;-49
2023/09/27 09:42:31;;;;;;;3.93;3.63;;;27.30;47.00;;;;;;4986680;28;20464;-47
2023/09/27 09:45:10;;;;;;;3.33;3.13;;;27.50;46.30;;;;;;4985487;28;20442;-50
2023/09/27 09:47:41;;;;;;;4.57;3.00;;;27.50;46.40;;;;;;4990135;28;20865;-52
2023/09/27 09:50:08;;;;;;;3.97;3.17;;;27.70;46.20;;;;;;4998315;28;20450;-48
2023/09/27 09:52:38;;;;;;;3.50;3.20;;;27.70;46.20;;;;;;4992680;28;20454;-47
2023/09/27 09:55:06;;;;;;;4.17;3.77;;;27.90;46.90;;;;;;4990806;28;20445;-49
2023/09/27 09:57:38;;;;;;;4.93;3.23;;;28.00;45.40;;;;;;5005209;28;20492;-48
2023/09/27 10:00:25;;;;;;;3.67;3.37;;;28.20;45.30;;;;;;4989608;28;20449;-48
2023/09/27 10:02:56;;;;;;;5.60;3.03;;;28.40;44.90;;;;;;4982485;28;20540;-48
2023/09/27 10:05:22;;;;;;;3.20;2.90;;;28.50;44.50;;;;;;4982618;28;20925;-48
2023/09/27 10:07:49;;;;;;;3.90;3.40;;;28.60;44.70;;;;;;4990910;28;20525;-50
2023/09/27 10:10:19;;;;;;;3.10;2.90;;;28.80;45.00;;;;;;4991273;28;20456;-47
2023/09/27 10:12:47;;;;;;;7.33;3.23;;;29.10;44.80;;;;;;4997463;28;20449;-48
2023/09/27 10:15:17;;;;;;;3.07;2.77;;;29.40;44.30;;;;;;4992247;28;20933;-50
2023/09/27 10:17:43;;;;;;;3.80;3.40;;;29.40;43.10;;;;;;4991498;28;22777;-49
2023/09/27 10:20:14;;;;;;;2.70;2.50;;;29.30;43.70;;;;;;4996323;28;20528;-48
2023/09/27 10:22:41;;;;;;;3.20;3.00;;;29.50;43.70;;;;;;4995235;28;20194;-48
2023/09/27 10:25:28;;;;;;;3.90;3.03;;;29.80;44.00;;;;;;4991113;28;20523;-48
2023/09/27 10:28:04;;;;;;;3.50;3.23;;;30.00;42.10;;;;;;4991609;28;20460;-49
2023/09/27 10:30:42;;;;;;;2.63;2.43;;;30.10;42.10;;;;;;4997595;28;20492;-48
2023/09/27 10:33:16;;;;;;;3.23;2.93;;;30.30;42.70;;;;;;4991450;28;20484;-51
2023/09/27 10:36:08;;;;;;;3.43;3.00;;;30.40;42.60;;;;;;4988923;28;20447;-47
2023/09/27 10:38:57;;;;;;;2.93;2.73;;;30.70;42.00;;;;;;4988949;28;20484;-48
2023/09/27 10:41:31;;;;;;;3.90;3.00;;;30.80;40.70;;;;;;4977779;28;20945;-50
2023/09/27 10:43:57;;;;;;;3.10;2.90;;;31.00;41.20;;;;;;4984681;28;20913;-54
2023/09/27 10:46:24;;;;;;;3.20;2.90;;;31.10;40.10;;;;;;4985589;28;20592;-48
2023/09/27 10:48:58;;;;;;;3.30;3.10;;;31.20;40.50;;;;;;4988580;28;20916;-47
2023/09/27 10:51:26;;;;;;;2.80;2.60;;;31.30;39.50;;;;;;5003995;28;20440;-45
2023/09/27 10:53:52;;;;;;;3.00;2.70;;;31.10;38.70;;;;;;4999334;28;20944;-47
2023/09/27 10:56:18;;;;;;;3.13;2.90;;;30.90;39.70;;;;;;5002269;28;20474;-45
2023/09/27 10:58:45;;;;;;;2.77;2.57;;;31.20;39.50;;;;;;4996844;28;20493;-51
2023/09/27 11:01:11;;;;;;;3.37;3.17;;;31.40;39.10;;;;;;4984952;28;20199;-50
2023/09/27 11:03:37;;;;;;;2.80;2.60;;;31.50;38.00;;;;;;5004152;28;20491;-53
2023/09/27 11:06:13;;;;;;;2.33;2.20;;;31.60;38.50;;;;;;4998386;28;20474;-48
2023/09/27 11:08:40;;;;;;;3.00;2.80;;;31.60;38.30;;;;;;4985919;28;20724;-51
2023/09/27 11:11:12;;;;;;;2.83;2.60;;;31.70;39.30;;;;;;4989500;28;20441;-48
2023/09/27 11:13:44;;;;;;;5.10;2.30;;;31.90;37.60;;;;;;4990087;28;20453;-49
2023/09/27 11:16:12;;;;;;;2.40;2.20;;;32.20;36.10;;;;;;5000109;28;20480;-48
2023/09/27 11:18:57;;;;;;;3.13;2.60;;;32.20;36.80;;;;;;5001287;28;20485;-48
2023/09/27 11:21:24;;;;;;;2.50;2.30;;;32.40;35.20;;;;;;5004443;28;20481;-48
2023/09/27 11:23:59;;;;;;;3.13;2.50;;;32.60;34.50;;;;;;4992780;28;20445;-49
2023/09/27 11:26:27;;;;;;;2.03;1.93;;;32.80;34.40;;;;;;4995711;28;20479;-54
2023/09/27 11:29:00;;;;;;;2.30;2.10;;;32.80;34.40;;;;;;4988858;28;21003;-47
2023/09/27 11:31:28;;;;;;;2.23;2.13;;;33.00;34.50;;;;;;4986742;28;20459;-48
2023/09/27 11:34:21;;;;;;;2.67;2.47;;;33.00;33.40;;;;;;4984858;28;20884;-49
2023/09/27 11:36:55;;;;;;;2.63;2.20;;;33.10;34.30;;;;;;4996195;28;20474;-49
2023/09/27 11:39:49;;;;;;;2.57;2.23;;;33.30;33.40;;;;;;5002331;28;20794;-52
2023/09/27 11:42:26;;;;;;;2.80;2.27;;;33.40;33.00;;;;;;4990052;28;20450;-50
2023/09/27 11:45:09;;;;;;;2.80;2.60;;;33.30;32.80;;;;;;4991612;28;20496;-52
2023/09/27 11:47:48;;;;;;;2.40;2.20;;;32.90;33.80;;;;;;4992014;28;21012;-48
2023/09/27 11:50:15;;;;;;;2.30;2.20;;;33.00;34.10;;;;;;4995231;28;20457;-48
2023/09/27 11:52:48;;;;;;;2.80;2.30;;;33.00;33.50;;;;;;4996469;28;20954;-48
2023/09/27 11:55:14;;;;;;;2.40;2.20;;;33.10;33.50;;;;;;5003174;28;20442;-48
2023/09/27 11:57:41;;;;;;;2.53;2.13;;;33.30;32.60;;;;;;4997493;28;21015;-50
2023/09/27 12:00:08;;;;;;;2.37;2.27;;;33.30;33.10;;;;;;4982065;28;20473;-50
2023/09/27 12:02:35;;;;;;;2.30;2.10;;;33.40;33.20;;;;;;4989994;28;20878;-49
2023/09/27 12:05:01;;;;;;;2.50;2.30;;;33.60;32.80;;;;;;4989134;28;20442;-50
2023/09/27 12:07:29;;;;;;;4.67;2.40;;;33.70;32.50;;;;;;4994286;28;20504;-50
2023/09/27 12:09:55;;;;;;;1.93;1.73;;;33.90;32.70;;;;;;4994067;28;20523;-52
2023/09/27 12:12:21;;;;;;;2.33;2.10;;;33.90;31.80;;;;;;4989765;28;20561;-49
2023/09/27 12:14:46;;;;;;;2.20;2.10;;;33.80;31.10;;;;;;4992023;28;20195;-51
2023/09/27 12:17:12;;;;;;;2.57;2.37;;;33.90;31.30;;;;;;4996973;28;21199;-48
2023/09/27 12:19:39;;;;;;;4.87;3.40;;;34.00;31.20;;;;;;4993859;28;20273;-46
2023/09/27 12:22:04;;;;;;;10.40;2.40;;;34.00;32.00;;;;;;4987034;28;20565;-46
2023/09/27 12:24:30;;;;;;;2.83;2.60;;;34.10;31.30;;;;;;4985984;28;20446;-47
2023/09/27 12:26:56;;;;;;;2.10;1.90;;;34.20;30.60;;;;;;4990841;28;20252;-47
2023/09/27 12:29:22;;;;;;;5.20;2.40;;;34.30;29.90;;;;;;4997493;28;20836;-50
2023/09/27 12:31:47;;;;;;;2.87;2.33;;;34.30;29.80;;;;;;4999966;28;20186;-46
2023/09/27 12:34:13;;;;;;;2.27;2.10;;;34.30;30.70;;;;;;5003793;28;20203;-52
2023/09/27 12:36:39;;;;;;;2.43;2.10;;;34.30;30.10;;;;;;4990799;28;20608;-47
2023/09/27 12:39:05;;;;;;;2.20;2.00;;;34.30;29.80;;;;;;5000385;28;20488;-47
2023/09/27 12:41:30;;;;;;;2.30;2.10;;;34.30;30.50;;;;;;4995180;28;20348;-51
2023/09/27 12:43:56;;;;;;;2.30;2.10;;;34.40;30.40;;;;;;4986872;28;20234;-49
2023/09/27 12:46:22;;;;;;;2.53;2.33;;;34.40;30.20;;;;;;4983428;28;20201;-49
2023/09/27 12:48:47;;;;;;;2.13;2.03;;;34.20;30.20;;;;;;4988828;28;20186;-53